Terminal Aerodrome Forecast
Issued by NWS

Home | Current Version | Previous Version | Text Only | Print | Product List | Glossary On
Versions: 1 2 3 4 5 6 7 8 9 10 11 12
567
FTUS45 KTFX 222324
TAFLWT
TAF
KLWT 222324Z 2300/2324 VRB06KT P6SM SCT060 BKN150
     FM230600 VRB06KT 3SM -SN BR SCT010 OVC035
     FM231900 VRB06KT 3SM -SN BR SCT005 OVC010=

USA.gov is the U.S. government's official web portal to all federal, state and local government web resources and services.